sensor_id;sensor_type;location;lat;lon;timestamp;temperature;humidity
12833;DHT22;6483;51.310;4.462;2024-01-30T00:01:55;7.70;99.90
12833;DHT22;6483;51.310;4.462;2024-01-30T00:04:21;7.70;99.90
12833;DHT22;6483;51.310;4.462;2024-01-30T00:06:46;7.80;99.90
12833;DHT22;6483;51.310;4.462;2024-01-30T00:09:12;7.80;99.90
12833;DHT22;6483;51.310;4.462;2024-01-30T00:11:39;7.90;99.90
12833;DHT22;6483;51.310;4.462;2024-01-30T00:14:05;7.90;99.90
12833;DHT22;6483;51.310;4.462;2024-01-30T00:16:30;8.10;99.90
12833;DHT22;6483;51.310;4.462;2024-01-30T00:18:56;8.10;99.90
12833;DHT22;6483;51.310;4.462;2024-01-30T00:21:22;8.20;99.90
12833;DHT22;6483;51.310;4.462;2024-01-30T00:23:48;8.20;99.90
12833;DHT22;6483;51.310;4.462;2024-01-30T00:26:14;8.20;99.90
12833;DHT22;6483;51.310;4.462;2024-01-30T00:28:41;8.30;99.90
12833;DHT22;6483;51.310;4.462;2024-01-30T00:31:07;8.40;99.90
12833;DHT22;6483;51.310;4.462;2024-01-30T00:33:33;8.50;99.90
12833;DHT22;6483;51.310;4.462;2024-01-30T00:35:59;8.40;99.90
12833;DHT22;6483;51.310;4.462;2024-01-30T00:38:24;8.40;99.90
12833;DHT22;6483;51.310;4.462;2024-01-30T00:40:50;8.40;99.90
12833;DHT22;6483;51.310;4.462;2024-01-30T00:43:16;8.40;99.90
12833;DHT22;6483;51.310;4.462;2024-01-30T00:45:43;8.30;99.90
12833;DHT22;6483;51.310;4.462;2024-01-30T00:48:09;8.40;99.90
12833;DHT22;6483;51.310;4.462;2024-01-30T00:50:35;8.40;99.90
12833;DHT22;6483;51.310;4.462;2024-01-30T00:53:01;8.40;99.90
12833;DHT22;6483;51.310;4.462;2024-01-30T00:55:27;8.30;99.90
12833;DHT22;6483;51.310;4.462;2024-01-30T00:57:53;8.30;99.90
12833;DHT22;6483;51.310;4.462;2024-01-30T01:00:18;8.30;99.90
12833;DHT22;6483;51.310;4.462;2024-01-30T01:02:46;8.10;99.90
12833;DHT22;6483;51.310;4.462;2024-01-30T01:05:12;8.30;99.90
12833;DHT22;6483;51.310;4.462;2024-01-30T01:07:38;8.20;99.90
12833;DHT22;6483;51.310;4.462;2024-01-30T01:10:06;8.20;99.90
12833;DHT22;6483;51.310;4.462;2024-01-30T01:12:31;8.20;99.90
12833;DHT22;6483;51.310;4.462;2024-01-30T01:14:57;8.10;99.90
12833;DHT22;6483;51.310;4.462;2024-01-30T01:17:23;8.00;99.90
12833;DHT22;6483;51.310;4.462;2024-01-30T01:19:49;8.00;99.90
12833;DHT22;6483;51.310;4.462;2024-01-30T01:22:15;7.90;99.90
12833;DHT22;6483;51.310;4.462;2024-01-30T01:24:42;7.90;99.90
12833;DHT22;6483;51.310;4.462;2024-01-30T01:27:08;7.90;99.90
12833;DHT22;6483;51.310;4.462;2024-01-30T01:29:34;7.90;99.90
12833;DHT22;6483;51.310;4.462;2024-01-30T01:31:59;7.90;99.90
12833;DHT22;6483;51.310;4.462;2024-01-30T01:34:25;7.80;99.90
12833;DHT22;6483;51.310;4.462;2024-01-30T01:36:51;7.70;99.90
12833;DHT22;6483;51.310;4.462;2024-01-30T01:39:17;7.70;99.90
12833;DHT22;6483;51.310;4.462;2024-01-30T01:41:43;7.50;99.90
12833;DHT22;6483;51.310;4.462;2024-01-30T01:44:09;7.50;99.90
12833;DHT22;6483;51.310;4.462;2024-01-30T01:46:35;7.40;99.90
12833;DHT22;6483;51.310;4.462;2024-01-30T01:49:03;7.40;99.90
12833;DHT22;6483;51.310;4.462;2024-01-30T01:51:31;7.50;99.90
12833;DHT22;6483;51.310;4.462;2024-01-30T01:54:01;7.40;99.90
12833;DHT22;6483;51.310;4.462;2024-01-30T01:56:27;7.40;99.90
12833;DHT22;6483;51.310;4.462;2024-01-30T01:58:55;7.40;99.90
12833;DHT22;6483;51.310;4.462;2024-01-30T02:01:21;7.50;99.90
12833;DHT22;6483;51.310;4.462;2024-01-30T02:03:48;7.50;99.90
12833;DHT22;6483;51.310;4.462;2024-01-30T02:06:15;7.50;99.90
12833;DHT22;6483;51.310;4.462;2024-01-30T02:08:41;7.50;99.90
12833;DHT22;6483;51.310;4.462;2024-01-30T02:11:08;7.50;99.90
12833;DHT22;6483;51.310;4.462;2024-01-30T02:13:35;7.50;99.90
12833;DHT22;6483;51.310;4.462;2024-01-30T02:16:01;7.50;99.90
12833;DHT22;6483;51.310;4.462;2024-01-30T02:18:27;7.50;99.90
12833;DHT22;6483;51.310;4.462;2024-01-30T02:20:54;7.50;99.90
12833;DHT22;6483;51.310;4.462;2024-01-30T02:23:23;7.50;99.90
12833;DHT22;6483;51.310;4.462;2024-01-30T02:25:50;7.40;99.90
12833;DHT22;6483;51.310;4.462;2024-01-30T02:28:19;7.30;99.90
12833;DHT22;6483;51.310;4.462;2024-01-30T02:30:45;7.20;99.90
12833;DHT22;6483;51.310;4.462;2024-01-30T02:33:12;7.20;99.90
12833;DHT22;6483;51.310;4.462;2024-01-30T02:35:38;7.10;99.90
12833;DHT22;6483;51.310;4.462;2024-01-30T02:38:04;7.10;99.90
12833;DHT22;6483;51.310;4.462;2024-01-30T02:40:31;7.00;99.90
12833;DHT22;6483;51.310;4.462;2024-01-30T02:42:58;7.00;99.90
12833;DHT22;6483;51.310;4.462;2024-01-30T02:45:24;7.10;99.90
12833;DHT22;6483;51.310;4.462;2024-01-30T02:47:50;7.10;99.90
12833;DHT22;6483;51.310;4.462;2024-01-30T02:50:16;7.20;99.90
12833;DHT22;6483;51.310;4.462;2024-01-30T02:52:42;7.30;99.90
12833;DHT22;6483;51.310;4.462;2024-01-30T02:55:09;7.40;99.90
12833;DHT22;6483;51.310;4.462;2024-01-30T02:57:35;7.50;99.90
12833;DHT22;6483;51.310;4.462;2024-01-30T03:00:02;7.50;99.90
12833;DHT22;6483;51.310;4.462;2024-01-30T03:02:29;7.60;99.90
12833;DHT22;6483;51.310;4.462;2024-01-30T03:04:55;7.70;99.90
12833;DHT22;6483;51.310;4.462;2024-01-30T03:07:21;7.70;99.90
12833;DHT22;6483;51.310;4.462;2024-01-30T03:09:46;7.80;99.90
12833;DHT22;6483;51.310;4.462;2024-01-30T03:12:12;6.40;99.90
12833;DHT22;6483;51.310;4.462;2024-01-30T03:14:38;8.00;99.90
12833;DHT22;6483;51.310;4.462;2024-01-30T03:17:03;9.00;99.90
12833;DHT22;6483;51.310;4.462;2024-01-30T03:19:29;8.10;99.90
12833;DHT22;6483;51.310;4.462;2024-01-30T03:21:55;8.20;99.90
12833;DHT22;6483;51.310;4.462;2024-01-30T03:24:21;8.30;99.90
12833;DHT22;6483;51.310;4.462;2024-01-30T03:26:46;8.40;99.90
12833;DHT22;6483;51.310;4.462;2024-01-30T03:29:12;8.50;99.90
12833;DHT22;6483;51.310;4.462;2024-01-30T03:31:39;8.70;99.90
12833;DHT22;6483;51.310;4.462;2024-01-30T03:34:05;9.00;99.90
12833;DHT22;6483;51.310;4.462;2024-01-30T03:36:30;9.20;99.90
12833;DHT22;6483;51.310;4.462;2024-01-30T03:38:58;9.40;99.90
12833;DHT22;6483;51.310;4.462;2024-01-30T03:41:24;9.50;99.90
12833;DHT22;6483;51.310;4.462;2024-01-30T03:43:50;9.60;99.90
12833;DHT22;6483;51.310;4.462;2024-01-30T03:46:16;9.70;99.90
12833;DHT22;6483;51.310;4.462;2024-01-30T03:48:42;9.70;99.90
12833;DHT22;6483;51.310;4.462;2024-01-30T03:51:08;9.60;99.90
12833;DHT22;6483;51.310;4.462;2024-01-30T03:53:40;9.60;99.90
12833;DHT22;6483;51.310;4.462;2024-01-30T03:56:06;9.60;99.90
12833;DHT22;6483;51.310;4.462;2024-01-30T03:58:32;9.60;99.90
12833;DHT22;6483;51.310;4.462;2024-01-30T04:00:58;9.50;99.90
12833;DHT22;6483;51.310;4.462;2024-01-30T04:03:23;9.50;99.90
12833;DHT22;6483;51.310;4.462;2024-01-30T04:05:51;9.50;99.90
12833;DHT22;6483;51.310;4.462;2024-01-30T04:08:16;9.50;99.90
12833;DHT22;6483;51.310;4.462;2024-01-30T04:10:42;9.50;99.90
12833;DHT22;6483;51.310;4.462;2024-01-30T04:13:08;9.50;99.90
12833;DHT22;6483;51.310;4.462;2024-01-30T04:15:34;9.60;99.90
12833;DHT22;6483;51.310;4.462;2024-01-30T04:18:00;9.70;99.90
12833;DHT22;6483;51.310;4.462;2024-01-30T04:20:26;9.80;99.90
12833;DHT22;6483;51.310;4.462;2024-01-30T04:22:52;9.80;99.90
12833;DHT22;6483;51.310;4.462;2024-01-30T04:25:18;10.00;99.90
12833;DHT22;6483;51.310;4.462;2024-01-30T04:27:43;10.10;99.90
12833;DHT22;6483;51.310;4.462;2024-01-30T04:30:09;10.20;99.90
12833;DHT22;6483;51.310;4.462;2024-01-30T04:32:36;10.20;99.90
12833;DHT22;6483;51.310;4.462;2024-01-30T04:35:02;10.20;99.90
12833;DHT22;6483;51.310;4.462;2024-01-30T04:37:28;10.30;99.90
12833;DHT22;6483;51.310;4.462;2024-01-30T04:39:54;10.30;99.90
12833;DHT22;6483;51.310;4.462;2024-01-30T04:42:20;10.30;99.90
12833;DHT22;6483;51.310;4.462;2024-01-30T04:44:45;10.30;99.90
12833;DHT22;6483;51.310;4.462;2024-01-30T04:47:11;10.50;99.90
12833;DHT22;6483;51.310;4.462;2024-01-30T04:49:41;10.50;99.90
12833;DHT22;6483;51.310;4.462;2024-01-30T04:52:07;10.40;99.90
12833;DHT22;6483;51.310;4.462;2024-01-30T04:54:34;10.50;99.90
12833;DHT22;6483;51.310;4.462;2024-01-30T04:57:00;10.50;99.90
12833;DHT22;6483;51.310;4.462;2024-01-30T04:59:26;10.50;99.90
12833;DHT22;6483;51.310;4.462;2024-01-30T05:01:52;10.50;99.90
12833;DHT22;6483;51.310;4.462;2024-01-30T05:04:17;10.50;99.90
12833;DHT22;6483;51.310;4.462;2024-01-30T05:06:43;10.60;99.90
12833;DHT22;6483;51.310;4.462;2024-01-30T05:09:09;10.60;99.90
12833;DHT22;6483;51.310;4.462;2024-01-30T05:11:39;10.60;99.90
12833;DHT22;6483;51.310;4.462;2024-01-30T05:14:05;10.70;99.90
12833;DHT22;6483;51.310;4.462;2024-01-30T05:16:31;10.70;99.90
12833;DHT22;6483;51.310;4.462;2024-01-30T05:18:58;10.70;99.90
12833;DHT22;6483;51.310;4.462;2024-01-30T05:21:24;10.70;99.90
12833;DHT22;6483;51.310;4.462;2024-01-30T05:23:49;10.80;99.90
12833;DHT22;6483;51.310;4.462;2024-01-30T05:26:15;10.80;99.90
12833;DHT22;6483;51.310;4.462;2024-01-30T05:28:41;10.80;99.90
12833;DHT22;6483;51.310;4.462;2024-01-30T05:31:06;10.90;99.90
12833;DHT22;6483;51.310;4.462;2024-01-30T05:33:32;10.90;99.90
12833;DHT22;6483;51.310;4.462;2024-01-30T05:35:58;10.90;99.90
12833;DHT22;6483;51.310;4.462;2024-01-30T05:38:24;10.80;99.90
12833;DHT22;6483;51.310;4.462;2024-01-30T05:40:49;10.80;99.90
12833;DHT22;6483;51.310;4.462;2024-01-30T05:43:15;14.60;99.90
12833;DHT22;6483;51.310;4.462;2024-01-30T05:45:41;10.90;99.90
12833;DHT22;6483;51.310;4.462;2024-01-30T05:48:06;11.00;99.90
12833;DHT22;6483;51.310;4.462;2024-01-30T05:50:34;11.00;99.90
12833;DHT22;6483;51.310;4.462;2024-01-30T05:52:59;10.90;99.90
12833;DHT22;6483;51.310;4.462;2024-01-30T05:55:25;10.90;99.90
12833;DHT22;6483;51.310;4.462;2024-01-30T05:57:51;10.90;99.90
12833;DHT22;6483;51.310;4.462;2024-01-30T06:00:18;10.90;99.90
12833;DHT22;6483;51.310;4.462;2024-01-30T06:02:44;11.00;99.90
12833;DHT22;6483;51.310;4.462;2024-01-30T06:05:09;11.00;99.90
12833;DHT22;6483;51.310;4.462;2024-01-30T06:07:35;11.00;99.90
12833;DHT22;6483;51.310;4.462;2024-01-30T06:10:01;11.00;99.90
12833;DHT22;6483;51.310;4.462;2024-01-30T06:12:28;11.00;99.90
12833;DHT22;6483;51.310;4.462;2024-01-30T06:14:54;11.00;99.90
12833;DHT22;6483;51.310;4.462;2024-01-30T06:17:22;11.00;99.90
12833;DHT22;6483;51.310;4.462;2024-01-30T06:19:48;11.00;99.90
12833;DHT22;6483;51.310;4.462;2024-01-30T06:22:14;11.00;99.90
12833;DHT22;6483;51.310;4.462;2024-01-30T06:24:40;11.00;99.90
12833;DHT22;6483;51.310;4.462;2024-01-30T06:27:06;11.10;99.90
12833;DHT22;6483;51.310;4.462;2024-01-30T06:29:32;11.10;99.90
12833;DHT22;6483;51.310;4.462;2024-01-30T06:31:58;11.10;99.90
12833;DHT22;6483;51.310;4.462;2024-01-30T06:34:24;11.20;99.90
12833;DHT22;6483;51.310;4.462;2024-01-30T06:36:49;11.20;99.90
12833;DHT22;6483;51.310;4.462;2024-01-30T06:39:15;11.20;99.90
12833;DHT22;6483;51.310;4.462;2024-01-30T06:41:42;11.20;99.90
12833;DHT22;6483;51.310;4.462;2024-01-30T06:44:08;11.30;99.90
12833;DHT22;6483;51.310;4.462;2024-01-30T06:46:35;11.30;99.90
12833;DHT22;6483;51.310;4.462;2024-01-30T06:49:01;11.30;99.90
12833;DHT22;6483;51.310;4.462;2024-01-30T06:51:27;11.30;99.90
12833;DHT22;6483;51.310;4.462;2024-01-30T06:53:52;11.30;99.90
12833;DHT22;6483;51.310;4.462;2024-01-30T06:56:18;11.30;99.90
12833;DHT22;6483;51.310;4.462;2024-01-30T06:58:50;11.40;99.90
12833;DHT22;6483;51.310;4.462;2024-01-30T07:01:15;11.40;99.90
12833;DHT22;6483;51.310;4.462;2024-01-30T07:03:42;11.40;99.90
12833;DHT22;6483;51.310;4.462;2024-01-30T07:06:08;11.40;99.90
12833;DHT22;6483;51.310;4.462;2024-01-30T07:08:34;11.50;99.90
12833;DHT22;6483;51.310;4.462;2024-01-30T07:11:00;11.50;99.90
12833;DHT22;6483;51.310;4.462;2024-01-30T07:13:25;11.50;99.90
12833;DHT22;6483;51.310;4.462;2024-01-30T07:15:51;11.50;99.90
12833;DHT22;6483;51.310;4.462;2024-01-30T07:18:17;11.50;99.90
12833;DHT22;6483;51.310;4.462;2024-01-30T07:20:42;11.50;99.90
12833;DHT22;6483;51.310;4.462;2024-01-30T07:23:15;11.50;99.90
12833;DHT22;6483;51.310;4.462;2024-01-30T07:25:43;11.50;99.90
12833;DHT22;6483;51.310;4.462;2024-01-30T07:28:09;11.50;99.90
12833;DHT22;6483;51.310;4.462;2024-01-30T07:30:36;11.50;99.90
12833;DHT22;6483;51.310;4.462;2024-01-30T07:33:02;11.50;99.90
12833;DHT22;6483;51.310;4.462;2024-01-30T07:35:27;11.50;99.90
12833;DHT22;6483;51.310;4.462;2024-01-30T07:37:53;11.50;99.90
12833;DHT22;6483;51.310;4.462;2024-01-30T07:40:19;11.50;99.90
12833;DHT22;6483;51.310;4.462;2024-01-30T07:42:45;11.50;99.90
12833;DHT22;6483;51.310;4.462;2024-01-30T07:45:11;11.50;99.90
12833;DHT22;6483;51.310;4.462;2024-01-30T07:47:36;11.50;99.90
12833;DHT22;6483;51.310;4.462;2024-01-30T07:50:02;11.60;99.90
12833;DHT22;6483;51.310;4.462;2024-01-30T07:52:28;11.50;99.90
12833;DHT22;6483;51.310;4.462;2024-01-30T07:54:54;11.50;99.90
12833;DHT22;6483;51.310;4.462;2024-01-30T07:57:20;11.60;99.90
12833;DHT22;6483;51.310;4.462;2024-01-30T07:59:46;11.60;99.90
12833;DHT22;6483;51.310;4.462;2024-01-30T08:02:13;11.60;99.90
12833;DHT22;6483;51.310;4.462;2024-01-30T08:04:38;11.60;99.90
12833;DHT22;6483;51.310;4.462;2024-01-30T08:07:04;11.50;99.90
12833;DHT22;6483;51.310;4.462;2024-01-30T08:09:30;11.50;99.90
12833;DHT22;6483;51.310;4.462;2024-01-30T08:11:56;11.50;99.90
12833;DHT22;6483;51.310;4.462;2024-01-30T08:14:22;11.50;99.90
12833;DHT22;6483;51.310;4.462;2024-01-30T08:16:47;11.50;99.90
12833;DHT22;6483;51.310;4.462;2024-01-30T08:19:14;11.50;99.90
12833;DHT22;6483;51.310;4.462;2024-01-30T08:21:40;11.50;99.90
12833;DHT22;6483;51.310;4.462;2024-01-30T08:24:07;11.50;99.90
12833;DHT22;6483;51.310;4.462;2024-01-30T08:26:33;11.50;99.90
12833;DHT22;6483;51.310;4.462;2024-01-30T08:28:59;11.60;99.90
12833;DHT22;6483;51.310;4.462;2024-01-30T08:31:25;11.60;99.90
12833;DHT22;6483;51.310;4.462;2024-01-30T08:33:51;11.60;99.90
12833;DHT22;6483;51.310;4.462;2024-01-30T08:36:17;11.60;99.90
12833;DHT22;6483;51.310;4.462;2024-01-30T08:38:43;11.70;99.90
12833;DHT22;6483;51.310;4.462;2024-01-30T08:41:09;11.70;99.90
12833;DHT22;6483;51.310;4.462;2024-01-30T08:43:35;11.70;99.90
12833;DHT22;6483;51.310;4.462;2024-01-30T08:46:02;11.70;99.90
12833;DHT22;6483;51.310;4.462;2024-01-30T08:48:27;11.70;99.90
12833;DHT22;6483;51.310;4.462;2024-01-30T08:50:53;11.70;99.90
12833;DHT22;6483;51.310;4.462;2024-01-30T08:53:19;11.80;99.90
12833;DHT22;6483;51.310;4.462;2024-01-30T08:55:45;11.70;99.90
12833;DHT22;6483;51.310;4.462;2024-01-30T08:58:11;11.70;99.90
12833;DHT22;6483;51.310;4.462;2024-01-30T09:00:37;11.80;99.90
12833;DHT22;6483;51.310;4.462;2024-01-30T09:03:03;11.80;99.90
12833;DHT22;6483;51.310;4.462;2024-01-30T09:05:29;11.80;99.90
12833;DHT22;6483;51.310;4.462;2024-01-30T09:07:55;11.80;99.90
12833;DHT22;6483;51.310;4.462;2024-01-30T09:10:21;11.80;99.90
12833;DHT22;6483;51.310;4.462;2024-01-30T09:12:47;11.80;99.90
12833;DHT22;6483;51.310;4.462;2024-01-30T09:15:13;11.80;99.90
12833;DHT22;6483;51.310;4.462;2024-01-30T09:17:39;11.80;99.90
12833;DHT22;6483;51.310;4.462;2024-01-30T09:20:06;11.80;99.90
12833;DHT22;6483;51.310;4.462;2024-01-30T09:22:32;11.80;99.90
12833;DHT22;6483;51.310;4.462;2024-01-30T09:24:58;11.80;99.90
12833;DHT22;6483;51.310;4.462;2024-01-30T09:27:24;11.80;99.90
12833;DHT22;6483;51.310;4.462;2024-01-30T09:29:49;11.80;99.90
12833;DHT22;6483;51.310;4.462;2024-01-30T09:32:15;11.80;99.90
12833;DHT22;6483;51.310;4.462;2024-01-30T09:34:43;11.80;99.90
12833;DHT22;6483;51.310;4.462;2024-01-30T09:37:08;11.80;99.90
12833;DHT22;6483;51.310;4.462;2024-01-30T09:39:34;11.80;99.90
12833;DHT22;6483;51.310;4.462;2024-01-30T09:44:57;11.70;99.90
12833;DHT22;6483;51.310;4.462;2024-01-30T09:47:22;11.60;99.90
12833;DHT22;6483;51.310;4.462;2024-01-30T09:49:49;11.70;99.90
12833;DHT22;6483;51.310;4.462;2024-01-30T09:52:15;11.70;99.90
12833;DHT22;6483;51.310;4.462;2024-01-30T09:54:41;11.70;99.90
12833;DHT22;6483;51.310;4.462;2024-01-30T09:57:07;11.80;99.90
12833;DHT22;6483;51.310;4.462;2024-01-30T09:59:34;11.90;99.90
12833;DHT22;6483;51.310;4.462;2024-01-30T10:02:00;12.00;99.90
12833;DHT22;6483;51.310;4.462;2024-01-30T10:04:26;12.00;99.90
12833;DHT22;6483;51.310;4.462;2024-01-30T10:06:52;12.00;99.90
12833;DHT22;6483;51.310;4.462;2024-01-30T10:09:17;12.10;99.90
12833;DHT22;6483;51.310;4.462;2024-01-30T10:11:43;12.10;99.90
12833;DHT22;6483;51.310;4.462;2024-01-30T10:14:09;11.90;99.90
12833;DHT22;6483;51.310;4.462;2024-01-30T10:16:35;11.90;99.90
12833;DHT22;6483;51.310;4.462;2024-01-30T10:19:01;11.90;99.90
12833;DHT22;6483;51.310;4.462;2024-01-30T10:21:29;11.90;99.90
12833;DHT22;6483;51.310;4.462;2024-01-30T10:23:55;11.90;99.90
12833;DHT22;6483;51.310;4.462;2024-01-30T10:26:21;12.00;99.90
12833;DHT22;6483;51.310;4.462;2024-01-30T10:28:48;12.00;99.90
12833;DHT22;6483;51.310;4.462;2024-01-30T10:31:17;12.00;99.90
12833;DHT22;6483;51.310;4.462;2024-01-30T10:33:44;12.10;99.90
12833;DHT22;6483;51.310;4.462;2024-01-30T10:36:13;12.00;99.90
12833;DHT22;6483;51.310;4.462;2024-01-30T10:38:43;11.90;99.90
12833;DHT22;6483;51.310;4.462;2024-01-30T10:41:11;11.90;99.90
12833;DHT22;6483;51.310;4.462;2024-01-30T10:43:47;11.90;99.90
12833;DHT22;6483;51.310;4.462;2024-01-30T10:46:20;11.80;99.90
12833;DHT22;6483;51.310;4.462;2024-01-30T10:48:56;11.80;99.90
12833;DHT22;6483;51.310;4.462;2024-01-30T10:51:22;11.70;99.90
12833;DHT22;6483;51.310;4.462;2024-01-30T10:53:49;11.70;99.90
12833;DHT22;6483;51.310;4.462;2024-01-30T10:56:16;11.60;99.90
12833;DHT22;6483;51.310;4.462;2024-01-30T10:58:42;11.60;99.90
12833;DHT22;6483;51.310;4.462;2024-01-30T11:01:09;11.60;99.90
12833;DHT22;6483;51.310;4.462;2024-01-30T11:03:35;11.40;99.90
12833;DHT22;6483;51.310;4.462;2024-01-30T11:06:02;11.40;99.90
12833;DHT22;6483;51.310;4.462;2024-01-30T11:08:28;11.40;99.90
12833;DHT22;6483;51.310;4.462;2024-01-30T11:10:58;11.40;99.90
12833;DHT22;6483;51.310;4.462;2024-01-30T11:13:30;11.60;99.90
12833;DHT22;6483;51.310;4.462;2024-01-30T11:16:00;11.70;99.90
12833;DHT22;6483;51.310;4.462;2024-01-30T11:18:29;11.50;99.90
12833;DHT22;6483;51.310;4.462;2024-01-30T11:21:01;11.30;99.90
12833;DHT22;6483;51.310;4.462;2024-01-30T11:23:30;11.30;99.90
12833;DHT22;6483;51.310;4.462;2024-01-30T11:25:58;11.30;99.90
12833;DHT22;6483;51.310;4.462;2024-01-30T11:28:24;11.40;99.90
12833;DHT22;6483;51.310;4.462;2024-01-30T11:30:50;11.50;99.90
12833;DHT22;6483;51.310;4.462;2024-01-30T11:33:29;11.80;99.90
12833;DHT22;6483;51.310;4.462;2024-01-30T11:35:58;11.90;99.90
12833;DHT22;6483;51.310;4.462;2024-01-30T11:38:32;11.90;99.90
12833;DHT22;6483;51.310;4.462;2024-01-30T11:40:58;11.90;99.90
12833;DHT22;6483;51.310;4.462;2024-01-30T11:45:51;11.50;99.90
12833;DHT22;6483;51.310;4.462;2024-01-30T11:48:17;11.50;99.90
12833;DHT22;6483;51.310;4.462;2024-01-30T11:50:43;11.50;99.90
12833;DHT22;6483;51.310;4.462;2024-01-30T11:53:12;11.40;99.90
12833;DHT22;6483;51.310;4.462;2024-01-30T11:55:40;11.40;99.90
12833;DHT22;6483;51.310;4.462;2024-01-30T11:58:06;11.30;99.90
12833;DHT22;6483;51.310;4.462;2024-01-30T12:00:35;11.30;99.90
12833;DHT22;6483;51.310;4.462;2024-01-30T12:03:01;11.30;99.90
12833;DHT22;6483;51.310;4.462;2024-01-30T12:05:28;11.30;99.90
12833;DHT22;6483;51.310;4.462;2024-01-30T12:07:54;11.30;99.90
12833;DHT22;6483;51.310;4.462;2024-01-30T12:10:20;11.30;99.90
12833;DHT22;6483;51.310;4.462;2024-01-30T12:12:48;11.20;99.90
12833;DHT22;6483;51.310;4.462;2024-01-30T12:15:16;11.20;99.90
12833;DHT22;6483;51.310;4.462;2024-01-30T12:17:42;11.20;99.90
12833;DHT22;6483;51.310;4.462;2024-01-30T12:20:17;11.20;99.90
12833;DHT22;6483;51.310;4.462;2024-01-30T12:22:44;11.30;99.90
12833;DHT22;6483;51.310;4.462;2024-01-30T12:25:13;11.30;99.90
12833;DHT22;6483;51.310;4.462;2024-01-30T12:27:41;11.30;99.90
12833;DHT22;6483;51.310;4.462;2024-01-30T12:30:09;11.20;99.90
12833;DHT22;6483;51.310;4.462;2024-01-30T12:32:36;11.20;99.90
12833;DHT22;6483;51.310;4.462;2024-01-30T12:35:02;11.20;99.90
12833;DHT22;6483;51.310;4.462;2024-01-30T12:37:30;11.20;99.90
12833;DHT22;6483;51.310;4.462;2024-01-30T12:39:56;11.20;99.90
12833;DHT22;6483;51.310;4.462;2024-01-30T12:42:22;11.20;99.90
12833;DHT22;6483;51.310;4.462;2024-01-30T12:44:48;11.10;99.90
12833;DHT22;6483;51.310;4.462;2024-01-30T12:47:15;11.10;99.90
12833;DHT22;6483;51.310;4.462;2024-01-30T12:49:44;11.00;99.90
12833;DHT22;6483;51.310;4.462;2024-01-30T12:52:11;11.00;99.90
12833;DHT22;6483;51.310;4.462;2024-01-30T12:54:37;11.00;99.90
12833;DHT22;6483;51.310;4.462;2024-01-30T12:57:04;10.90;99.90
12833;DHT22;6483;51.310;4.462;2024-01-30T12:59:30;10.90;99.90
12833;DHT22;6483;51.310;4.462;2024-01-30T13:01:56;10.90;99.90
12833;DHT22;6483;51.310;4.462;2024-01-30T13:04:22;10.90;99.90
12833;DHT22;6483;51.310;4.462;2024-01-30T13:06:48;10.90;99.90
12833;DHT22;6483;51.310;4.462;2024-01-30T13:09:15;10.90;99.90
12833;DHT22;6483;51.310;4.462;2024-01-30T13:11:41;10.60;99.90
12833;DHT22;6483;51.310;4.462;2024-01-30T13:14:07;13.60;99.90
12833;DHT22;6483;51.310;4.462;2024-01-30T13:16:32;10.40;99.90
12833;DHT22;6483;51.310;4.462;2024-01-30T13:18:58;10.30;99.90
12833;DHT22;6483;51.310;4.462;2024-01-30T13:21:24;10.30;99.90
12833;DHT22;6483;51.310;4.462;2024-01-30T13:23:49;10.20;99.90
12833;DHT22;6483;51.310;4.462;2024-01-30T13:26:18;10.20;99.90
12833;DHT22;6483;51.310;4.462;2024-01-30T13:28:44;10.20;99.90
12833;DHT22;6483;51.310;4.462;2024-01-30T13:31:10;10.10;99.90
12833;DHT22;6483;51.310;4.462;2024-01-30T13:33:36;10.10;99.90
12833;DHT22;6483;51.310;4.462;2024-01-30T13:38:27;10.00;99.90
12833;DHT22;6483;51.310;4.462;2024-01-30T13:43:19;10.00;99.90
12833;DHT22;6483;51.310;4.462;2024-01-30T13:45:45;9.90;99.90
12833;DHT22;6483;51.310;4.462;2024-01-30T13:48:11;9.90;99.90
12833;DHT22;6483;51.310;4.462;2024-01-30T13:53:03;9.70;99.90
12833;DHT22;6483;51.310;4.462;2024-01-30T13:55:32;9.60;99.90
12833;DHT22;6483;51.310;4.462;2024-01-30T13:57:58;9.60;99.90
12833;DHT22;6483;51.310;4.462;2024-01-30T14:00:24;9.60;99.90
12833;DHT22;6483;51.310;4.462;2024-01-30T14:02:51;9.60;99.90
12833;DHT22;6483;51.310;4.462;2024-01-30T14:05:17;9.50;99.90
12833;DHT22;6483;51.310;4.462;2024-01-30T14:07:44;9.40;99.90
12833;DHT22;6483;51.310;4.462;2024-01-30T14:10:10;9.40;99.90
12833;DHT22;6483;51.310;4.462;2024-01-30T14:12:39;9.30;99.90
12833;DHT22;6483;51.310;4.462;2024-01-30T14:15:06;9.30;99.90
12833;DHT22;6483;51.310;4.462;2024-01-30T14:17:32;9.30;99.90
12833;DHT22;6483;51.310;4.462;2024-01-30T14:19:57;9.30;99.90
12833;DHT22;6483;51.310;4.462;2024-01-30T14:22:23;9.30;99.90
12833;DHT22;6483;51.310;4.462;2024-01-30T14:24:49;9.30;99.90
12833;DHT22;6483;51.310;4.462;2024-01-30T14:27:15;9.30;99.90
12833;DHT22;6483;51.310;4.462;2024-01-30T14:29:41;9.30;99.90
12833;DHT22;6483;51.310;4.462;2024-01-30T14:34:34;9.30;99.90
12833;DHT22;6483;51.310;4.462;2024-01-30T14:39:27;9.20;99.90
12833;DHT22;6483;51.310;4.462;2024-01-30T14:41:52;9.20;99.90
12833;DHT22;6483;51.310;4.462;2024-01-30T14:46:44;9.30;99.90
12833;DHT22;6483;51.310;4.462;2024-01-30T14:51:36;9.30;99.90
12833;DHT22;6483;51.310;4.462;2024-01-30T14:54:02;9.20;99.90
12833;DHT22;6483;51.310;4.462;2024-01-30T14:56:27;9.20;99.90
12833;DHT22;6483;51.310;4.462;2024-01-30T14:58:54;9.10;99.90
12833;DHT22;6483;51.310;4.462;2024-01-30T15:01:19;9.10;99.90
12833;DHT22;6483;51.310;4.462;2024-01-30T15:03:45;9.20;99.90
12833;DHT22;6483;51.310;4.462;2024-01-30T15:06:14;9.20;99.90
12833;DHT22;6483;51.310;4.462;2024-01-30T15:08:40;9.10;99.90
12833;DHT22;6483;51.310;4.462;2024-01-30T15:11:06;9.10;99.90
12833;DHT22;6483;51.310;4.462;2024-01-30T15:13:31;9.00;99.90
12833;DHT22;6483;51.310;4.462;2024-01-30T15:15:58;8.80;99.90
12833;DHT22;6483;51.310;4.462;2024-01-30T15:18:24;8.60;99.90
12833;DHT22;6483;51.310;4.462;2024-01-30T15:20:50;8.60;99.90
12833;DHT22;6483;51.310;4.462;2024-01-30T15:23:15;8.60;99.90
12833;DHT22;6483;51.310;4.462;2024-01-30T15:25:42;8.60;99.90
12833;DHT22;6483;51.310;4.462;2024-01-30T15:28:08;8.60;99.90
12833;DHT22;6483;51.310;4.462;2024-01-30T15:30:35;8.70;99.90
12833;DHT22;6483;51.310;4.462;2024-01-30T15:33:01;8.70;99.90
12833;DHT22;6483;51.310;4.462;2024-01-30T15:37:53;8.80;99.90
12833;DHT22;6483;51.310;4.462;2024-01-30T15:40:19;8.80;99.90
12833;DHT22;6483;51.310;4.462;2024-01-30T15:42:46;8.80;99.90
12833;DHT22;6483;51.310;4.462;2024-01-30T15:45:11;8.90;99.90
12833;DHT22;6483;51.310;4.462;2024-01-30T15:47:37;8.80;99.90
12833;DHT22;6483;51.310;4.462;2024-01-30T15:50:04;8.80;99.90
12833;DHT22;6483;51.310;4.462;2024-01-30T15:52:30;8.80;99.90
12833;DHT22;6483;51.310;4.462;2024-01-30T15:54:55;8.80;99.90
12833;DHT22;6483;51.310;4.462;2024-01-30T15:59:47;8.70;99.90
12833;DHT22;6483;51.310;4.462;2024-01-30T16:02:13;8.70;99.90
12833;DHT22;6483;51.310;4.462;2024-01-30T16:04:40;8.70;99.90
12833;DHT22;6483;51.310;4.462;2024-01-30T16:09:31;8.60;99.90
12833;DHT22;6483;51.310;4.462;2024-01-30T16:11:58;8.50;99.90
12833;DHT22;6483;51.310;4.462;2024-01-30T16:14:23;8.50;99.90
12833;DHT22;6483;51.310;4.462;2024-01-30T16:19:15;8.40;99.90